createdAt,value
2023-02-09T00:00:13.891Z,102420.13
2023-02-09T00:02:44.118Z,102417.09
2023-02-09T00:05:12.807Z,102403.38
2023-02-09T00:07:41.207Z,102413.41
2023-02-09T00:10:10.395Z,102410.91
2023-02-09T00:12:56.244Z,102405.56
2023-02-09T00:15:25.067Z,102397.22
2023-02-09T00:17:54.790Z,102410.28
2023-02-09T00:20:23.238Z,102400.56
2023-02-09T00:22:51.654Z,102393.16
2023-02-09T00:25:20.212Z,102393.16
2023-02-09T00:27:48.853Z,102392.97
2023-02-09T00:30:17.300Z,102397.59
2023-02-09T00:32:45.863Z,102389.97
2023-02-09T00:35:15.711Z,102390.63
2023-02-09T00:37:44.142Z,102389.66
2023-02-09T00:40:13.245Z,102376.59
2023-02-09T00:42:41.669Z,102390.69
2023-02-09T00:45:10.716Z,102375.78
2023-02-09T00:47:39.188Z,102373.09
2023-02-09T00:50:08.478Z,102376.56
2023-02-09T00:52:38.404Z,102367.03
2023-02-09T00:55:07.421Z,102368.34
2023-02-09T00:57:36.109Z,102371.22
2023-02-09T01:00:05.068Z,102371.38
2023-02-09T01:02:33.497Z,102372.69
2023-02-09T01:05:02.284Z,102378.22
2023-02-09T01:07:30.746Z,102380.69
2023-02-09T01:10:02.909Z,102370.34
2023-02-09T01:12:32.542Z,102372.38
2023-02-09T01:15:01.848Z,102373.22
2023-02-09T01:17:30.321Z,102374.75
2023-02-09T01:19:58.752Z,102367.56
2023-02-09T01:22:27.314Z,102367.75
2023-02-09T01:24:56.172Z,102369.41
2023-02-09T01:27:25.964Z,102372.13
2023-02-09T01:29:54.730Z,102376.81
2023-02-09T01:32:23.117Z,102369.59
2023-02-09T01:34:51.840Z,102368.44
2023-02-09T01:37:20.660Z,102371.28
2023-02-09T01:39:49.263Z,102381.97
2023-02-09T01:42:20.609Z,102382.16
2023-02-09T01:45:08.673Z,102382.13
2023-02-09T01:47:43.261Z,102380.31
2023-02-09T01:50:12.752Z,102360.53
2023-02-09T01:52:42.017Z,102362.88
2023-02-09T01:55:13.885Z,102357.66
2023-02-09T01:57:46.731Z,102353.31
2023-02-09T02:00:19.058Z,102361.00
2023-02-09T02:02:50.722Z,102347.91
2023-02-09T02:05:20.754Z,102362.78
2023-02-09T02:07:55.481Z,102347.56
2023-02-09T02:10:24.746Z,102352.41
2023-02-09T02:12:55.000Z,102350.06
2023-02-09T02:15:28.399Z,102357.25
2023-02-09T02:18:14.280Z,102346.91
2023-02-09T02:21:05.850Z,102342.72
2023-02-09T02:23:44.364Z,102350.06
2023-02-09T02:26:45.001Z,102340.22
2023-02-09T02:29:48.566Z,102339.53
2023-02-09T02:32:25.544Z,102335.72
2023-02-09T02:35:00.304Z,102339.91
2023-02-09T02:37:50.540Z,102338.41
2023-02-09T02:40:29.176Z,102336.44
2023-02-09T02:43:01.321Z,102337.59
2023-02-09T02:45:41.177Z,102340.44
2023-02-09T02:48:31.014Z,102336.59
2023-02-09T02:51:03.909Z,102340.09
2023-02-09T02:53:36.364Z,102344.28
2023-02-09T02:56:10.606Z,102337.94
2023-02-09T02:58:41.803Z,102345.97
2023-02-09T03:01:15.501Z,102341.78
2023-02-09T03:03:47.392Z,102339.59
2023-02-09T03:06:17.053Z,102338.94
2023-02-09T03:08:51.085Z,102336.13
2023-02-09T03:11:21.526Z,102331.94
2023-02-09T03:14:06.014Z,102330.09
2023-02-09T03:16:41.198Z,102331.94
2023-02-09T03:19:22.925Z,102331.59
2023-02-09T03:21:57.921Z,102325.72
2023-02-09T03:24:41.034Z,102325.09
2023-02-09T03:27:16.411Z,102333.59
2023-02-09T03:29:47.240Z,102335.63
2023-02-09T03:32:17.029Z,102323.56
2023-02-09T03:34:47.303Z,102331.09
2023-02-09T03:37:16.023Z,102327.09
2023-02-09T03:39:44.506Z,102328.94
2023-02-09T03:42:13.080Z,102327.75
2023-02-09T03:44:41.577Z,102324.56
2023-02-09T03:47:11.044Z,102311.53
2023-02-09T03:49:42.146Z,102314.19
2023-02-09T03:52:14.204Z,102314.38
2023-02-09T03:54:43.275Z,102311.84
2023-02-09T03:57:12.061Z,102309.00
2023-02-09T03:59:40.532Z,102310.34
2023-02-09T04:02:10.581Z,102293.78
2023-02-09T04:04:39.068Z,102293.78
2023-02-09T04:07:07.689Z,102306.50
2023-02-09T04:09:38.253Z,102295.13
2023-02-09T04:12:07.472Z,102305.66
2023-02-09T04:14:35.917Z,102294.44
2023-02-09T04:17:04.316Z,102291.75
2023-02-09T04:19:33.048Z,102301.47
2023-02-09T04:22:01.945Z,102302.44
2023-02-09T04:24:30.485Z,102301.78
2023-02-09T04:27:00.360Z,102288.38
2023-02-09T04:29:28.910Z,102295.06
2023-02-09T04:31:57.426Z,102288.38
2023-02-09T04:34:25.947Z,102279.22
2023-02-09T04:36:54.450Z,102283.72
2023-02-09T04:39:22.954Z,102269.66
2023-02-09T04:41:51.398Z,102266.00
2023-02-09T04:44:21.147Z,102272.34
2023-02-09T04:46:49.492Z,102270.47
2023-02-09T04:49:18.107Z,102260.25
2023-02-09T04:51:46.444Z,102261.25
2023-02-09T04:54:14.887Z,102268.13
2023-02-09T04:56:43.280Z,102255.22
2023-02-09T04:59:25.698Z,102263.59
2023-02-09T05:01:55.630Z,102263.75
2023-02-09T05:04:24.037Z,102256.91
2023-02-09T05:06:52.437Z,102262.97
2023-02-09T05:09:20.834Z,102274.88
2023-02-09T05:11:49.154Z,102268.84
2023-02-09T05:14:17.669Z,102277.56
2023-02-09T05:16:46.085Z,102280.75
2023-02-09T05:19:15.819Z,102282.91
2023-02-09T05:21:44.300Z,102283.22
2023-02-09T05:24:15.673Z,102282.22
2023-02-09T05:26:44.034Z,102286.91
2023-02-09T05:29:12.459Z,102280.69
2023-02-09T05:31:40.947Z,102271.13
2023-02-09T05:34:09.766Z,102268.59
2023-02-09T05:36:39.696Z,102264.59
2023-02-09T05:39:08.382Z,102266.63
2023-02-09T05:41:54.211Z,102256.13
2023-02-09T05:44:22.809Z,102247.25
2023-02-09T05:46:51.197Z,102251.28
2023-02-09T05:49:19.818Z,102250.28
2023-02-09T05:51:49.948Z,102247.25
2023-02-09T05:54:18.936Z,102254.97
2023-02-09T05:56:47.887Z,102254.31
2023-02-09T05:59:16.322Z,102248.28
2023-02-09T06:01:44.952Z,102248.97
2023-02-09T06:04:13.692Z,102250.97
2023-02-09T06:06:42.112Z,102262.31
2023-02-09T06:09:13.447Z,102267.88
2023-02-09T06:11:42.182Z,102262.16
2023-02-09T06:14:11.022Z,102278.41
2023-02-09T06:16:40.701Z,102282.91
2023-02-09T06:19:12.714Z,102283.56
2023-02-09T06:21:41.365Z,102282.38
2023-02-09T06:24:09.813Z,102276.06
2023-02-09T06:26:40.892Z,102279.06
2023-02-09T06:29:09.770Z,102279.75
2023-02-09T06:31:38.727Z,102286.91
2023-02-09T06:34:07.256Z,102284.41
2023-02-09T06:36:35.663Z,102284.56
2023-02-09T06:39:08.121Z,102286.41
2023-02-09T06:41:37.375Z,102298.13
2023-02-09T06:44:07.290Z,102294.78
2023-02-09T06:46:35.929Z,102309.50
2023-02-09T06:49:04.968Z,102309.84
2023-02-09T06:51:33.421Z,102315.53
2023-02-09T06:54:02.072Z,102299.16
2023-02-09T06:56:30.463Z,102313.50
2023-02-09T06:58:58.835Z,102315.84
2023-02-09T07:01:28.709Z,102311.16
2023-02-09T07:03:57.171Z,102322.38
2023-02-09T07:06:26.080Z,102321.22
2023-02-09T07:08:54.537Z,102329.25
2023-02-09T07:11:22.915Z,102322.56
2023-02-09T07:13:51.258Z,102322.41
2023-02-09T07:16:19.935Z,102309.03
2023-02-09T07:18:50.143Z,102317.03
2023-02-09T07:21:23.529Z,102313.81
2023-02-09T07:23:53.209Z,102300.50
2023-02-09T07:26:21.525Z,102303.75
2023-02-09T07:28:50.070Z,102307.47
2023-02-09T07:31:18.783Z,102300.78
2023-02-09T07:33:47.798Z,102297.75
2023-02-09T07:36:17.836Z,102293.34
2023-02-09T07:38:46.702Z,102295.63
2023-02-09T07:41:18.800Z,102294.16
2023-02-09T07:43:48.971Z,102297.91
2023-02-09T07:46:19.698Z,102294.66
2023-02-09T07:48:49.296Z,102298.84
2023-02-09T07:51:20.846Z,102301.75
2023-02-09T07:53:49.382Z,102284.06
2023-02-09T07:56:18.153Z,102306.34
2023-02-09T07:58:46.685Z,102299.94
2023-02-09T08:01:15.245Z,102306.63
2023-02-09T08:03:48.870Z,102302.00
2023-02-09T08:06:30.370Z,102291.34
2023-02-09T08:09:06.186Z,102303.25
2023-02-09T08:11:40.502Z,102301.94
2023-02-09T08:14:14.638Z,102304.25
2023-02-09T08:16:43.577Z,102297.69
2023-02-09T08:19:16.569Z,102307.50
2023-02-09T08:21:49.508Z,102318.44
2023-02-09T08:24:21.361Z,102323.38
2023-02-09T08:26:50.300Z,102342.72
2023-02-09T08:29:19.887Z,102335.16
2023-02-09T08:31:48.292Z,102336.75
2023-02-09T08:34:16.678Z,102327.44
2023-02-09T08:36:45.419Z,102331.22
2023-02-09T08:39:15.206Z,102344.25
2023-02-09T08:41:46.380Z,102339.19
2023-02-09T08:44:15.157Z,102344.50
2023-02-09T08:46:43.687Z,102335.84
2023-02-09T08:49:13.028Z,102346.06
2023-02-09T08:51:41.381Z,102354.25
2023-02-09T08:54:09.969Z,102347.06
2023-02-09T08:56:39.907Z,102341.19
2023-02-09T08:59:08.291Z,102337.47
2023-02-09T09:01:36.689Z,102343.91
2023-02-09T09:04:05.220Z,102354.81
2023-02-09T09:06:35.005Z,102352.44
2023-02-09T09:09:03.430Z,102348.84
2023-02-09T09:11:32.901Z,102348.53
2023-02-09T09:14:02.691Z,102349.69
2023-02-09T09:16:31.170Z,102353.16
2023-02-09T09:18:59.987Z,102355.03
2023-02-09T09:21:28.486Z,102355.19
2023-02-09T09:23:56.821Z,102354.66
2023-02-09T09:26:25.246Z,102356.81
2023-02-09T09:28:53.609Z,102357.16
2023-02-09T09:31:24.181Z,102355.38
2023-02-09T09:33:52.739Z,102348.22
2023-02-09T09:36:21.194Z,102357.59
2023-02-09T09:38:49.721Z,102353.69
2023-02-09T09:41:22.197Z,102354.75
2023-02-09T09:43:51.857Z,102356.91
2023-02-09T09:46:25.161Z,102356.72
2023-02-09T09:48:57.176Z,102355.09
2023-02-09T09:51:39.153Z,102355.44
2023-02-09T09:54:14.011Z,102355.28
2023-02-09T09:56:42.847Z,102347.56
2023-02-09T09:59:17.623Z,102324.03
2023-02-09T10:01:48.672Z,102323.59
2023-02-09T10:04:17.424Z,102324.88
2023-02-09T10:06:47.736Z,102310.97
2023-02-09T10:09:27.557Z,102316.25
2023-02-09T10:12:05.261Z,102332.41
2023-02-09T10:14:33.977Z,102326.38
2023-02-09T10:17:03.803Z,102332.31
2023-02-09T10:19:32.764Z,102327.00
2023-02-09T10:22:01.272Z,102330.72
2023-02-09T10:24:31.736Z,102338.88
2023-02-09T10:27:07.778Z,102340.00
2023-02-09T10:29:36.732Z,102341.69
2023-02-09T10:32:15.449Z,102337.91
2023-02-09T10:34:47.362Z,102342.28
2023-02-09T10:37:21.117Z,102323.88
2023-02-09T10:39:57.056Z,102330.88
2023-02-09T10:42:30.537Z,102324.09
2023-02-09T10:45:07.187Z,102323.38
2023-02-09T10:47:37.143Z,102327.38
2023-02-09T10:50:18.158Z,102327.66
2023-02-09T10:52:57.598Z,102322.91
2023-02-09T10:55:33.804Z,102326.97
2023-02-09T10:58:11.989Z,102316.06
2023-02-09T11:00:49.356Z,102322.28
2023-02-09T11:03:21.694Z,102325.09
2023-02-09T11:05:59.827Z,102320.84
2023-02-09T11:08:46.012Z,102324.66
2023-02-09T11:11:26.933Z,102325.06
2023-02-09T11:13:55.970Z,102324.63
2023-02-09T11:16:45.398Z,102332.59
2023-02-09T11:19:28.365Z,102323.81
2023-02-09T11:22:12.857Z,102318.38
2023-02-09T11:24:57.332Z,102310.38
2023-02-09T11:27:58.538Z,102316.72
2023-02-09T11:30:41.564Z,102315.84
2023-02-09T11:33:17.538Z,102299.91
2023-02-09T11:35:56.055Z,102303.66
2023-02-09T11:38:36.412Z,102290.16
2023-02-09T11:41:31.378Z,102301.31
2023-02-09T11:44:03.272Z,102293.00
2023-02-09T11:46:35.446Z,102287.09
2023-02-09T11:49:12.901Z,102286.50
2023-02-09T11:51:47.991Z,102294.22
2023-02-09T11:54:21.654Z,102290.00
2023-02-09T11:56:53.360Z,102284.78
2023-02-09T11:59:28.513Z,102279.53
2023-02-09T12:02:05.430Z,102286.56
2023-02-09T12:04:44.641Z,102293.72
2023-02-09T12:07:21.782Z,102281.38
2023-02-09T12:09:55.808Z,102277.03
2023-02-09T12:12:31.140Z,102283.72
2023-02-09T12:15:14.345Z,102271.63
2023-02-09T12:17:49.157Z,102276.84
2023-02-09T12:20:30.149Z,102268.03
2023-02-09T12:23:07.868Z,102272.97
2023-02-09T12:25:52.017Z,102276.91
2023-02-09T12:28:40.117Z,102278.84
2023-02-09T12:31:13.248Z,102273.25
2023-02-09T12:34:12.423Z,102276.69
2023-02-09T12:37:03.464Z,102274.00
2023-02-09T12:39:34.960Z,102275.75
2023-02-09T12:42:29.135Z,102276.81
2023-02-09T12:45:00.548Z,102280.00
2023-02-09T12:47:58.417Z,102289.34
2023-02-09T12:50:52.443Z,102277.38
2023-02-09T12:53:41.801Z,102276.00
2023-02-09T12:56:34.577Z,102277.91
2023-02-09T12:59:23.680Z,102277.25
2023-02-09T13:02:25.933Z,102270.66
2023-02-09T13:05:04.197Z,102276.19
2023-02-09T13:07:44.427Z,102275.75
2023-02-09T13:10:24.379Z,102267.72
2023-02-09T13:12:59.849Z,102281.34
2023-02-09T13:15:45.243Z,102274.63
2023-02-09T13:18:21.135Z,102283.41
2023-02-09T13:21:13.029Z,102270.91
2023-02-09T13:23:56.063Z,102256.38
2023-02-09T13:26:27.484Z,102258.03
2023-02-09T13:29:20.982Z,102254.59
2023-02-09T13:32:06.017Z,102259.91
2023-02-09T13:34:39.293Z,102275.13
2023-02-09T13:37:21.953Z,102265.66
2023-02-09T13:39:57.357Z,102266.09
2023-02-09T13:42:28.566Z,102268.00
2023-02-09T13:45:00.219Z,102271.75
2023-02-09T13:47:30.209Z,102268.16
2023-02-09T13:50:00.878Z,102270.00
2023-02-09T13:52:36.300Z,102271.91
2023-02-09T13:55:13.111Z,102279.06
2023-02-09T13:57:44.422Z,102269.28
2023-02-09T14:00:24.671Z,102281.94
2023-02-09T14:02:56.512Z,102279.47
2023-02-09T14:05:35.124Z,102286.16
2023-02-09T14:08:04.857Z,102272.97
2023-02-09T14:10:35.313Z,102280.50
2023-02-09T14:13:07.604Z,102271.94
2023-02-09T14:15:57.661Z,102287.63
2023-02-09T14:18:32.718Z,102290.72
2023-02-09T14:21:05.317Z,102295.00
2023-02-09T14:23:35.086Z,102289.06
2023-02-09T14:26:05.684Z,102282.66
2023-02-09T14:28:35.726Z,102283.91
2023-02-09T14:31:08.300Z,102286.22
2023-02-09T14:33:38.437Z,102271.63
2023-02-09T14:36:07.623Z,102285.72
2023-02-09T14:38:38.660Z,102278.34
2023-02-09T14:41:28.137Z,102281.13
2023-02-09T14:44:00.820Z,102287.09
2023-02-09T14:46:47.778Z,102288.31
2023-02-09T14:49:16.970Z,102284.63
2023-02-09T14:51:45.843Z,102286.09
2023-02-09T14:54:24.056Z,102283.69
2023-02-09T14:56:54.176Z,102283.31
2023-02-09T14:59:23.883Z,102276.47
2023-02-09T15:01:57.390Z,102291.00
2023-02-09T15:04:26.501Z,102293.22
2023-02-09T15:07:02.951Z,102291.66
2023-02-09T15:09:36.654Z,102290.22
2023-02-09T15:12:06.718Z,102298.47
2023-02-09T15:14:42.686Z,102293.94
2023-02-09T15:17:16.985Z,102296.53
2023-02-09T15:19:46.341Z,102305.16
2023-02-09T15:22:17.130Z,102295.31
2023-02-09T15:24:48.382Z,102287.41
2023-02-09T15:27:25.000Z,102295.81
2023-02-09T15:29:53.794Z,102289.88
2023-02-09T15:32:25.008Z,102286.81
2023-02-09T15:34:54.174Z,102288.47
2023-02-09T15:37:25.310Z,102292.13
2023-02-09T15:39:57.155Z,102308.00
2023-02-09T15:42:43.244Z,102309.03
2023-02-09T15:45:33.884Z,102303.28
2023-02-09T15:48:04.973Z,102298.69
2023-02-09T15:50:35.066Z,102307.84
2023-02-09T15:53:05.522Z,102309.41
2023-02-09T15:55:35.378Z,102308.81
2023-02-09T15:58:05.196Z,102322.75
2023-02-09T16:00:33.640Z,102331.78
2023-02-09T16:03:14.799Z,102336.75
2023-02-09T16:05:43.975Z,102340.97
2023-02-09T16:08:19.100Z,102346.81
2023-02-09T16:10:48.927Z,102351.41
2023-02-09T16:13:19.450Z,102357.47
2023-02-09T16:15:48.566Z,102362.06
2023-02-09T16:18:18.726Z,102363.09
2023-02-09T16:20:50.766Z,102369.75
2023-02-09T16:23:23.004Z,102376.41
2023-02-09T16:25:53.293Z,102375.19
2023-02-09T16:28:22.894Z,102373.91
2023-02-09T16:30:54.164Z,102373.91
2023-02-09T16:33:25.988Z,102379.72
2023-02-09T16:36:03.952Z,102393.66
2023-02-09T16:38:32.673Z,102393.47
2023-02-09T16:41:01.086Z,102395.38
2023-02-09T16:43:29.597Z,102398.91
2023-02-09T16:46:03.823Z,102408.03
2023-02-09T16:48:35.412Z,102413.66
2023-02-09T16:51:03.908Z,102405.13
2023-02-09T16:53:36.065Z,102408.25
2023-02-09T16:56:10.095Z,102412.22
2023-02-09T16:58:39.520Z,102409.09
2023-02-09T17:01:13.977Z,102409.28
2023-02-09T17:03:46.781Z,102407.84
2023-02-09T17:06:21.277Z,102406.16
2023-02-09T17:08:50.021Z,102405.94
2023-02-09T17:11:20.508Z,102411.34
2023-02-09T17:13:49.425Z,102409.91
2023-02-09T17:16:20.785Z,102411.19
2023-02-09T17:18:53.311Z,102408.44
2023-02-09T17:21:24.619Z,102412.19
2023-02-09T17:23:53.785Z,102421.78
2023-02-09T17:26:22.345Z,102423.00
2023-02-09T17:28:51.318Z,102418.84
2023-02-09T17:31:23.254Z,102413.00
2023-02-09T17:33:54.928Z,102417.59
2023-02-09T17:36:27.464Z,102423.41
2023-02-09T17:38:58.548Z,102421.56
2023-02-09T17:41:32.354Z,102413.47
2023-02-09T17:44:22.320Z,102415.94
2023-02-09T17:46:55.405Z,102425.13
2023-02-09T17:49:25.362Z,102422.59
2023-02-09T17:51:54.046Z,102432.59
2023-02-09T17:54:22.494Z,102431.78
2023-02-09T17:56:51.037Z,102431.56
2023-02-09T17:59:21.192Z,102441.97
2023-02-09T18:01:50.670Z,102445.94
2023-02-09T18:04:22.181Z,102450.94
2023-02-09T18:06:53.187Z,102451.16
2023-02-09T18:09:24.900Z,102445.53
2023-02-09T18:11:59.712Z,102451.38
2023-02-09T18:14:29.503Z,102462.59
2023-02-09T18:16:58.421Z,102466.97
2023-02-09T18:19:27.151Z,102472.19
2023-02-09T18:21:58.783Z,102471.13
2023-02-09T18:24:30.645Z,102474.69
2023-02-09T18:26:59.679Z,102479.88
2023-02-09T18:29:30.252Z,102482.19
2023-02-09T18:31:59.600Z,102484.66
2023-02-09T18:34:29.126Z,102490.72
2023-02-09T18:36:58.947Z,102484.25
2023-02-09T18:39:27.638Z,102484.03
2023-02-09T18:41:55.972Z,102493.81
2023-02-09T18:44:29.174Z,102492.38
2023-02-09T18:47:00.291Z,102485.09
2023-02-09T18:49:29.524Z,102492.78
2023-02-09T18:51:59.401Z,102486.94
2023-02-09T18:54:29.152Z,102496.13
2023-02-09T18:56:58.030Z,102496.53
2023-02-09T18:59:29.400Z,102498.19
2023-02-09T19:01:58.514Z,102495.50
2023-02-09T19:04:27.852Z,102498.59
2023-02-09T19:06:56.829Z,102493.81
2023-02-09T19:09:27.022Z,102501.31
2023-02-09T19:11:55.741Z,102491.94
2023-02-09T19:14:41.669Z,102508.81
2023-02-09T19:17:17.180Z,102506.75
2023-02-09T19:19:50.129Z,102502.97
2023-02-09T19:22:21.887Z,102506.53
2023-02-09T19:24:55.570Z,102512.97
2023-02-09T19:27:26.777Z,102515.47
2023-02-09T19:29:57.193Z,102519.03
2023-02-09T19:32:27.277Z,102522.34
2023-02-09T19:34:56.393Z,102534.63
2023-02-09T19:37:25.412Z,102518.81
2023-02-09T19:40:04.254Z,102525.91
2023-02-09T19:42:33.961Z,102528.38
2023-02-09T19:45:09.645Z,102533.38
2023-02-09T19:47:39.453Z,102539.38
2023-02-09T19:50:08.211Z,102538.56
2023-02-09T19:52:38.470Z,102547.72
2023-02-09T19:55:10.965Z,102547.13
2023-02-09T19:57:41.502Z,102545.84
2023-02-09T20:00:15.707Z,102548.75
2023-02-09T20:02:45.421Z,102555.44
2023-02-09T20:05:14.713Z,102557.75
2023-02-09T20:07:48.799Z,102557.72
2023-02-09T20:10:19.544Z,102557.50
2023-02-09T20:12:48.355Z,102555.88
2023-02-09T20:15:17.520Z,102552.53
2023-02-09T20:20:15.913Z,102553.38
2023-02-09T20:22:44.588Z,102557.56
2023-02-09T20:25:14.326Z,102565.66
2023-02-09T20:27:45.540Z,102555.88
2023-02-09T20:30:16.212Z,102565.06
2023-02-09T20:32:46.257Z,102564.41
2023-02-09T20:35:15.585Z,102565.06
2023-02-09T20:37:44.756Z,102571.91
2023-02-09T20:40:13.769Z,102570.03
2023-02-09T20:43:01.231Z,102572.94
2023-02-09T20:45:47.593Z,102556.72
2023-02-09T20:48:17.379Z,102565.47
2023-02-09T20:50:46.458Z,102560.47
2023-02-09T20:53:15.095Z,102558.81
2023-02-09T20:55:43.949Z,102563.78
2023-02-09T20:58:14.503Z,102570.03
2023-02-09T21:00:44.329Z,102562.13
2023-02-09T21:03:13.200Z,102564.44
2023-02-09T21:05:42.270Z,102571.31
2023-02-09T21:08:11.489Z,102567.75
2023-02-09T21:10:40.389Z,102560.25
2023-02-09T21:13:10.846Z,102553.38
2023-02-09T21:15:43.953Z,102559.63
2023-02-09T21:18:13.307Z,102562.13
2023-02-09T21:20:42.398Z,102565.47
2023-02-09T21:23:11.344Z,102547.16
2023-02-09T21:25:39.833Z,102548.81
2023-02-09T21:28:08.418Z,102561.94
2023-02-09T21:30:37.629Z,102549.22
2023-02-09T21:33:07.943Z,102546.72
2023-02-09T21:35:40.702Z,102553.59
2023-02-09T21:38:09.514Z,102562.13
2023-02-09T21:40:38.789Z,102560.03
2023-02-09T21:43:07.451Z,102558.81
2023-02-09T21:45:39.000Z,102552.97
2023-02-09T21:48:09.260Z,102562.34
2023-02-09T21:50:37.635Z,102557.53
2023-02-09T21:53:06.112Z,102560.88
2023-02-09T21:55:34.940Z,102559.63
2023-02-09T21:58:03.366Z,102550.88
2023-02-09T22:00:32.296Z,102557.97
2023-02-09T22:03:01.399Z,102543.16
2023-02-09T22:05:31.157Z,102555.06
2023-02-09T22:07:59.505Z,102552.75
2023-02-09T22:10:28.616Z,102553.78
2023-02-09T22:12:57.190Z,102564.00
2023-02-09T22:15:25.576Z,102558.38
2023-02-09T22:17:53.916Z,102568.34
2023-02-09T22:20:22.405Z,102557.75
2023-02-09T22:22:52.092Z,102566.91
2023-02-09T22:25:22.568Z,102559.22
2023-02-09T22:27:50.941Z,102560.66
2023-02-09T22:30:19.393Z,102560.47
2023-02-09T22:32:47.800Z,102557.53
2023-02-09T22:35:16.508Z,102561.72
2023-02-09T22:37:45.050Z,102560.47
2023-02-09T22:40:14.773Z,102566.09
2023-02-09T22:42:43.187Z,102564.66
2023-02-09T22:45:11.649Z,102569.22
2023-02-09T22:47:40.144Z,102572.94
2023-02-09T22:50:09.242Z,102577.16
2023-02-09T22:52:37.652Z,102572.53
2023-02-09T22:55:06.689Z,102585.44
2023-02-09T22:57:36.555Z,102587.94
2023-02-09T23:00:07.480Z,102592.75
2023-02-09T23:02:36.080Z,102580.03
2023-02-09T23:05:04.847Z,102590.88
2023-02-09T23:07:33.344Z,102590.03
2023-02-09T23:10:01.715Z,102587.97
2023-02-09T23:12:30.070Z,102590.03
2023-02-09T23:14:59.864Z,102586.31
2023-02-09T23:17:28.437Z,102587.97
2023-02-09T23:19:56.864Z,102594.00
2023-02-09T23:22:25.229Z,102589.22
2023-02-09T23:24:55.033Z,102596.31
2023-02-09T23:27:23.425Z,102589.03
2023-02-09T23:29:51.913Z,102594.88
2023-02-09T23:32:21.673Z,102604.47
2023-02-09T23:34:50.079Z,102617.97
2023-02-09T23:37:28.722Z,102621.34
2023-02-09T23:40:05.225Z,102621.53
2023-02-09T23:42:34.010Z,102628.81
2023-02-09T23:45:02.387Z,102635.06
2023-02-09T23:47:32.104Z,102634.03
2023-02-09T23:50:00.501Z,102635.50
2023-02-09T23:52:29.042Z,102628.81
2023-02-09T23:54:57.699Z,102640.50
2023-02-09T23:57:26.339Z,102644.03
2023-02-09T23:59:54.713Z,102644.66
